Time;durP1;ratioP1;P1;durP2;ratioP2;P2;SDS_P1;SDS_P2;PMS_P1;PMS_P2;Temp;Humidity;BMP_temperature;BMP_pressure;BME280_temperature;BME280_humidity;BME280_pressure;Samples;Min_cycle;Max_cycle;Signal;HPM_P1;HPM_P2
2023/03/23 00:01:22;;;;;;;1.87;1.27;;;18.50;60.60;;;;;;5090696;28;20611;-46
2023/03/23 00:03:56;;;;;;;1.40;1.10;;;18.40;60.60;;;;;;5081038;28;20671;-45
2023/03/23 00:06:27;;;;;;;2.27;1.40;;;18.40;60.60;;;;;;5112149;27;20248;-46
2023/03/23 00:08:59;;;;;;;1.50;1.20;;;18.40;60.60;;;;;;5089839;28;20276;-46
2023/03/23 00:11:30;;;;;;;2.10;1.00;;;18.40;60.70;;;;;;5108238;28;20215;-45
2023/03/23 00:14:00;;;;;;;2.10;1.13;;;18.30;60.60;;;;;;5102174;27;20218;-46
2023/03/23 00:16:32;;;;;;;1.70;1.00;;;18.40;60.70;;;;;;5089672;28;20220;-46
2023/03/23 00:19:07;;;;;;;1.80;1.20;;;18.40;60.80;;;;;;5096535;28;20220;-46
2023/03/23 00:21:38;;;;;;;1.60;1.30;;;18.40;60.70;;;;;;5102210;28;20311;-46
2023/03/23 00:24:15;;;;;;;1.80;0.93;;;18.30;60.80;;;;;;5079662;28;20488;-46
2023/03/23 00:26:44;;;;;;;1.50;1.07;;;18.30;60.80;;;;;;5088353;28;20203;-46
2023/03/23 00:29:18;;;;;;;1.20;1.07;;;18.30;60.80;;;;;;5102145;27;20239;-46
2023/03/23 00:31:47;;;;;;;2.50;1.27;;;18.30;60.80;;;;;;5086247;28;20647;-45
2023/03/23 00:34:19;;;;;;;1.10;1.00;;;18.30;60.80;;;;;;5104422;28;20188;-46
2023/03/23 00:36:58;;;;;;;1.30;1.00;;;18.30;60.90;;;;;;5076621;28;20295;-46
2023/03/23 00:39:29;;;;;;;1.53;0.87;;;18.30;60.90;;;;;;5102568;28;20299;-46
2023/03/23 00:42:00;;;;;;;2.23;1.07;;;18.20;60.80;;;;;;5097694;28;20326;-46
2023/03/23 00:44:30;;;;;;;1.40;0.80;;;18.20;60.80;;;;;;5108634;28;20181;-46
2023/03/23 00:46:57;;;;;;;1.43;1.00;;;18.20;60.90;;;;;;5073788;28;20195;-46
2023/03/23 00:49:28;;;;;;;1.87;1.10;;;18.20;60.80;;;;;;5086063;28;20234;-46
2023/03/23 00:52:00;;;;;;;0.93;0.80;;;18.20;60.90;;;;;;5100983;28;20311;-46
2023/03/23 00:54:28;;;;;;;2.43;1.40;;;18.20;60.90;;;;;;5100106;28;20538;-46
2023/03/23 00:56:55;;;;;;;1.33;1.20;;;18.20;60.90;;;;;;5107919;28;20816;-46
2023/03/23 00:59:26;;;;;;;1.80;1.43;;;18.20;60.90;;;;;;5107925;28;20192;-45
2023/03/23 01:01:54;;;;;;;2.60;1.30;;;18.20;61.00;;;;;;5084666;28;20209;-46
2023/03/23 01:04:23;;;;;;;1.47;1.10;;;18.20;61.00;;;;;;5094944;28;20692;-46
2023/03/23 01:06:51;;;;;;;1.30;1.00;;;18.20;61.10;;;;;;5112930;28;20196;-46
2023/03/23 01:09:24;;;;;;;1.10;0.90;;;18.20;61.00;;;;;;5108797;28;20196;-46
2023/03/23 01:12:01;;;;;;;1.03;0.93;;;18.10;61.00;;;;;;5063402;28;20184;-46
2023/03/23 01:14:27;;;;;;;1.63;1.03;;;18.20;61.10;;;;;;5111247;28;20219;-46
2023/03/23 01:16:55;;;;;;;2.10;1.17;;;18.20;61.10;;;;;;5112320;28;20195;-46
2023/03/23 01:19:22;;;;;;;1.30;0.97;;;18.20;61.10;;;;;;5125186;27;20191;-46
2023/03/23 01:21:49;;;;;;;2.43;1.10;;;18.10;61.10;;;;;;5079276;28;20204;-46
2023/03/23 01:24:15;;;;;;;1.50;1.17;;;18.10;61.00;;;;;;5108437;27;20203;-46
2023/03/23 01:26:43;;;;;;;2.00;1.00;;;18.10;61.10;;;;;;5110527;28;20200;-46
2023/03/23 01:29:12;;;;;;;1.63;1.10;;;18.10;61.10;;;;;;5111708;27;20246;-46
2023/03/23 01:31:42;;;;;;;1.80;1.30;;;18.10;61.10;;;;;;5091936;28;20219;-46
2023/03/23 01:34:10;;;;;;;1.20;1.10;;;18.10;61.10;;;;;;5115692;27;20590;-46
2023/03/23 01:36:37;;;;;;;1.50;1.27;;;18.10;61.10;;;;;;5093774;28;20260;-46
2023/03/23 01:39:06;;;;;;;1.97;1.20;;;18.20;61.20;;;;;;5105984;28;20255;-45
2023/03/23 01:41:35;;;;;;;1.30;1.00;;;18.10;61.10;;;;;;5111089;28;20196;-46
2023/03/23 01:44:17;;;;;;;2.27;1.20;;;18.10;61.10;;;;;;5077263;28;20203;-46
2023/03/23 01:46:49;;;;;;;1.37;1.27;;;18.10;61.10;;;;;;5111236;28;20386;-46
2023/03/23 01:49:43;;;;;;;2.80;1.00;;;18.10;61.10;;;;;;5115112;27;20690;-46
2023/03/23 01:52:21;;;;;;;1.30;1.00;;;18.10;61.10;;;;;;5099250;28;20193;-46
2023/03/23 01:54:55;;;;;;;1.33;0.93;;;18.10;61.20;;;;;;5093702;28;20192;-46
2023/03/23 01:57:26;;;;;;;1.63;1.10;;;18.10;61.20;;;;;;5093312;28;20621;-46
2023/03/23 01:59:55;;;;;;;3.10;1.00;;;18.10;61.10;;;;;;5089873;28;20194;-46
2023/03/23 02:02:24;;;;;;;3.33;1.30;;;18.10;61.20;;;;;;5091027;28;20255;-46
2023/03/23 02:04:55;;;;;;;1.97;1.20;;;18.10;61.20;;;;;;5093352;28;20184;-46
2023/03/23 02:07:23;;;;;;;1.10;1.00;;;18.10;61.30;;;;;;5076971;28;20870;-46
2023/03/23 02:09:51;;;;;;;1.43;1.00;;;18.10;61.20;;;;;;5080285;27;20336;-45
2023/03/23 02:12:19;;;;;;;3.90;1.30;;;18.10;61.20;;;;;;5059494;28;20219;-46
2023/03/23 02:14:47;;;;;;;1.40;1.30;;;18.10;61.20;;;;;;5108108;28;20269;-46
2023/03/23 02:17:48;;;;;;;1.50;1.27;;;18.10;61.30;;;;;;5114379;27;20186;-46
2023/03/23 02:20:38;;;;;;;2.50;1.33;;;18.10;61.10;;;;;;5086970;28;20289;-46
2023/03/23 02:23:40;;;;;;;1.20;1.00;;;18.00;61.20;;;;;;5110219;28;20184;-46
2023/03/23 02:26:30;;;;;;;1.53;1.17;;;18.00;61.20;;;;;;5101585;27;20270;-45
2023/03/23 02:29:41;;;;;;;1.20;0.90;;;18.00;61.20;;;;;;5085581;28;20230;-46
2023/03/23 02:32:33;;;;;;;0.70;0.70;;;18.00;61.20;;;;;;5103165;27;20192;-46
2023/03/23 02:35:04;;;;;;;1.60;1.00;;;18.00;61.20;;;;;;5081975;28;20275;-46
2023/03/23 02:37:39;;;;;;;1.23;1.13;;;18.00;61.20;;;;;;5093393;28;20201;-45
2023/03/23 02:40:20;;;;;;;1.43;1.33;;;18.00;61.30;;;;;;5087415;28;20578;-45
2023/03/23 02:42:51;;;;;;;1.70;1.30;;;18.00;61.20;;;;;;5111370;28;20234;-46
2023/03/23 02:45:21;;;;;;;1.50;1.40;;;18.00;61.30;;;;;;5076451;28;20200;-46
2023/03/23 02:47:51;;;;;;;1.43;1.10;;;18.00;61.30;;;;;;5095968;28;20245;-46
2023/03/23 02:50:22;;;;;;;1.50;1.13;;;18.00;61.20;;;;;;5089919;28;20215;-45
2023/03/23 02:52:55;;;;;;;1.67;1.20;;;18.00;61.30;;;;;;5086361;28;20268;-46
2023/03/23 02:55:24;;;;;;;1.93;1.07;;;18.00;61.30;;;;;;5092912;28;20192;-46
2023/03/23 02:57:53;;;;;;;1.83;1.03;;;18.00;61.30;;;;;;5107433;28;20208;-46
2023/03/23 03:00:23;;;;;;;2.77;1.17;;;18.00;61.30;;;;;;5092204;28;20641;-46
2023/03/23 03:02:54;;;;;;;1.87;1.17;;;18.00;61.30;;;;;;5112010;27;20236;-46
2023/03/23 03:05:50;;;;;;;1.03;0.93;;;18.00;61.30;;;;;;5102083;27;20195;-46
2023/03/23 03:08:54;;;;;;;1.37;1.00;;;18.00;61.30;;;;;;5098509;28;20212;-46
2023/03/23 03:11:25;;;;;;;1.80;1.10;;;18.00;61.20;;;;;;5074024;28;20215;-46
2023/03/23 03:14:08;;;;;;;2.20;1.23;;;18.00;61.30;;;;;;5087769;28;20193;-46
2023/03/23 03:17:01;;;;;;;1.50;1.20;;;18.00;61.40;;;;;;5088181;28;20189;-46
2023/03/23 03:19:35;;;;;;;2.50;1.20;;;18.00;61.30;;;;;;5079274;28;20188;-46
2023/03/23 03:22:02;;;;;;;2.50;1.30;;;17.90;61.30;;;;;;5092794;28;20605;-46
2023/03/23 03:24:31;;;;;;;1.33;1.20;;;18.00;61.40;;;;;;5087035;28;20196;-47
2023/03/23 03:27:00;;;;;;;3.07;1.17;;;17.90;61.40;;;;;;5088210;28;20265;-46
2023/03/23 03:29:50;;;;;;;1.73;1.30;;;18.00;61.40;;;;;;5091142;28;20933;-46
2023/03/23 03:32:22;;;;;;;2.13;1.30;;;17.90;61.40;;;;;;5109481;27;20232;-46
2023/03/23 03:34:53;;;;;;;1.87;1.10;;;18.00;61.40;;;;;;5109391;28;20621;-46
2023/03/23 03:37:23;;;;;;;1.90;1.40;;;17.90;61.60;;;;;;5110102;27;20196;-45
2023/03/23 03:39:49;;;;;;;1.47;1.30;;;18.00;61.50;;;;;;5100759;28;20204;-46
2023/03/23 03:42:17;;;;;;;2.03;1.27;;;17.90;61.50;;;;;;5104848;28;20231;-46
2023/03/23 03:44:45;;;;;;;1.83;1.33;;;17.90;61.50;;;;;;5108309;28;20180;-46
2023/03/23 03:47:12;;;;;;;1.83;1.17;;;17.90;61.50;;;;;;5104272;27;20185;-45
2023/03/23 03:49:42;;;;;;;1.00;1.00;;;17.90;61.50;;;;;;5107640;28;20253;-46
2023/03/23 03:52:10;;;;;;;1.13;1.03;;;17.90;61.50;;;;;;5105229;27;20214;-46
2023/03/23 03:54:37;;;;;;;1.10;1.00;;;17.90;61.50;;;;;;5108688;28;20297;-46
2023/03/23 03:57:06;;;;;;;1.50;0.90;;;18.00;61.50;;;;;;5090160;28;20325;-46
2023/03/23 03:59:34;;;;;;;1.80;1.10;;;18.00;61.60;;;;;;5108973;28;20204;-46
2023/03/23 04:02:03;;;;;;;1.17;1.00;;;18.00;61.60;;;;;;5108602;27;20207;-46
2023/03/23 04:04:31;;;;;;;2.33;1.17;;;17.90;61.50;;;;;;5096148;28;20196;-46
2023/03/23 04:06:58;;;;;;;1.13;1.03;;;17.90;61.50;;;;;;5108362;27;20243;-46
2023/03/23 04:09:26;;;;;;;4.00;1.17;;;18.00;61.50;;;;;;5109037;28;20223;-46
2023/03/23 04:11:55;;;;;;;1.10;1.00;;;18.00;61.60;;;;;;5105922;28;20218;-45
2023/03/23 04:14:21;;;;;;;1.47;1.10;;;18.00;61.60;;;;;;5105964;28;20212;-46
2023/03/23 04:16:51;;;;;;;2.83;1.33;;;18.00;61.60;;;;;;5112016;27;20195;-46
2023/03/23 04:19:18;;;;;;;1.43;1.20;;;18.00;61.50;;;;;;5107600;28;20216;-46
2023/03/23 04:21:48;;;;;;;3.97;1.67;;;17.90;61.50;;;;;;5081359;28;20619;-46
2023/03/23 04:24:16;;;;;;;2.60;1.43;;;18.00;61.50;;;;;;5100646;28;20197;-46
2023/03/23 04:26:44;;;;;;;1.47;1.00;;;18.00;61.50;;;;;;5079496;28;20289;-46
2023/03/23 04:29:15;;;;;;;1.87;1.47;;;17.90;61.50;;;;;;5098600;28;20754;-46
2023/03/23 04:31:44;;;;;;;1.10;0.90;;;17.90;61.50;;;;;;5093603;28;20323;-46
2023/03/23 04:34:16;;;;;;;1.30;1.00;;;18.00;61.60;;;;;;5091513;28;20215;-46
2023/03/23 04:36:43;;;;;;;2.97;1.10;;;17.90;61.60;;;;;;5078035;28;20196;-46
2023/03/23 04:39:13;;;;;;;1.67;1.00;;;17.90;61.60;;;;;;5092146;28;20307;-46
2023/03/23 04:41:42;;;;;;;1.13;0.90;;;17.90;61.50;;;;;;5090920;28;20203;-46
2023/03/23 04:44:09;;;;;;;0.97;0.97;;;17.90;61.60;;;;;;5104373;28;20265;-46
2023/03/23 04:46:38;;;;;;;1.67;1.13;;;17.90;61.50;;;;;;5092329;28;20659;-46
2023/03/23 04:49:05;;;;;;;1.50;1.17;;;18.00;61.60;;;;;;5108410;28;20200;-46
2023/03/23 04:51:35;;;;;;;1.17;0.97;;;17.90;61.60;;;;;;5106278;28;20285;-46
2023/03/23 04:54:04;;;;;;;2.70;1.00;;;17.90;61.60;;;;;;5107044;28;20590;-46
2023/03/23 04:56:32;;;;;;;1.50;1.20;;;17.90;61.50;;;;;;5107725;28;20193;-46
2023/03/23 04:59:00;;;;;;;1.87;1.23;;;17.90;61.50;;;;;;5108648;28;20185;-46
2023/03/23 05:01:29;;;;;;;1.70;1.20;;;17.90;61.60;;;;;;5095084;28;20208;-46
2023/03/23 05:03:57;;;;;;;1.53;1.10;;;17.90;61.60;;;;;;5103887;28;20257;-46
2023/03/23 05:06:24;;;;;;;1.90;0.77;;;17.90;61.50;;;;;;5090502;28;20244;-46
2023/03/23 05:08:57;;;;;;;1.50;1.40;;;17.90;61.50;;;;;;5107032;28;20692;-46
2023/03/23 05:11:24;;;;;;;2.17;1.50;;;17.90;61.50;;;;;;5100849;28;20716;-48
2023/03/23 05:13:55;;;;;;;1.90;1.10;;;17.90;61.50;;;;;;5103298;28;20228;-46
2023/03/23 05:16:22;;;;;;;2.00;1.17;;;17.90;61.50;;;;;;5107552;28;20364;-45
2023/03/23 05:18:49;;;;;;;1.40;1.00;;;17.90;61.50;;;;;;5107467;28;20253;-46
2023/03/23 05:21:16;;;;;;;1.10;1.03;;;17.90;61.50;;;;;;5094243;28;20255;-45
2023/03/23 05:23:44;;;;;;;1.23;1.00;;;17.90;61.50;;;;;;5103637;28;20197;-45
2023/03/23 05:26:11;;;;;;;2.30;1.40;;;17.90;61.50;;;;;;5106990;28;20922;-45
2023/03/23 05:28:41;;;;;;;2.43;1.20;;;17.90;61.50;;;;;;5107951;28;20207;-45
2023/03/23 05:31:09;;;;;;;4.63;1.23;;;17.90;61.50;;;;;;5107169;28;20231;-46
2023/03/23 05:33:36;;;;;;;3.43;1.10;;;17.90;61.50;;;;;;5079766;28;20767;-46
2023/03/23 05:36:07;;;;;;;1.40;1.20;;;17.90;61.50;;;;;;5115474;28;20361;-46
2023/03/23 05:38:36;;;;;;;2.80;1.20;;;17.90;61.50;;;;;;5100956;28;20213;-46
2023/03/23 05:41:06;;;;;;;3.73;1.13;;;17.90;61.50;;;;;;5116147;28;20939;-46
2023/03/23 05:43:35;;;;;;;1.63;1.13;;;17.90;61.50;;;;;;5106409;28;20209;-46
2023/03/23 05:46:06;;;;;;;1.87;1.13;;;17.90;61.50;;;;;;5119152;28;20214;-45
2023/03/23 05:48:38;;;;;;;2.13;1.10;;;17.90;61.50;;;;;;5090317;28;20299;-46
2023/03/23 05:51:05;;;;;;;1.03;0.80;;;17.90;61.50;;;;;;5109933;28;20197;-46
2023/03/23 05:53:33;;;;;;;3.97;1.40;;;17.80;61.40;;;;;;5108483;28;20273;-45
2023/03/23 05:56:03;;;;;;;1.70;1.00;;;17.90;61.40;;;;;;5087666;28;20201;-46
2023/03/23 05:58:32;;;;;;;0.93;0.83;;;17.90;61.40;;;;;;5108965;28;20203;-46
2023/03/23 06:00:59;;;;;;;4.00;0.90;;;17.90;61.50;;;;;;5112132;28;20195;-46
2023/03/23 06:03:25;;;;;;;1.60;1.10;;;17.90;61.90;;;;;;5118293;27;20208;-46
2023/03/23 06:05:54;;;;;;;12.43;3.40;;;17.90;61.40;;;;;;5084633;28;20520;-46
2023/03/23 06:08:22;;;;;;;24.40;5.87;;;17.90;62.30;;;;;;5108801;28;20245;-46
2023/03/23 06:10:50;;;;;;;23.33;6.60;;;17.90;62.90;;;;;;5110210;28;20199;-46
2023/03/23 06:13:18;;;;;;;19.77;5.97;;;17.90;62.80;;;;;;5110827;27;20181;-47
2023/03/23 06:15:47;;;;;;;20.90;5.40;;;17.90;62.50;;;;;;5109506;28;20188;-45
2023/03/23 06:18:13;;;;;;;12.80;4.60;;;17.90;62.50;;;;;;5085469;28;20196;-45
2023/03/23 06:20:43;;;;;;;16.63;4.90;;;17.90;62.50;;;;;;5087511;28;20291;-45
2023/03/23 06:23:13;;;;;;;18.13;4.13;;;17.90;62.70;;;;;;5090132;28;20197;-45
2023/03/23 06:25:42;;;;;;;12.50;3.90;;;17.90;62.80;;;;;;5107566;28;20204;-46
2023/03/23 06:28:11;;;;;;;9.77;3.60;;;17.90;62.60;;;;;;5111971;27;20611;-46
2023/03/23 06:30:39;;;;;;;11.10;3.43;;;18.00;62.50;;;;;;5090981;28;20216;-45
2023/03/23 06:33:09;;;;;;;9.40;3.50;;;17.90;62.50;;;;;;5107740;27;20188;-45
2023/03/23 06:35:38;;;;;;;5.63;3.17;;;17.90;62.40;;;;;;5102305;28;20638;-45
2023/03/23 06:38:06;;;;;;;9.40;3.37;;;17.90;62.40;;;;;;5103734;28;20651;-53
2023/03/23 06:40:35;;;;;;;9.57;3.10;;;17.90;62.30;;;;;;5098480;28;20232;-46
2023/03/23 06:43:04;;;;;;;6.07;2.30;;;17.90;62.30;;;;;;5107607;27;20212;-46
2023/03/23 06:45:30;;;;;;;9.67;3.30;;;17.90;62.10;;;;;;5106620;28;20329;-46
2023/03/23 06:47:58;;;;;;;7.30;2.90;;;17.90;62.00;;;;;;5086537;27;20609;-46
2023/03/23 06:50:26;;;;;;;9.10;2.50;;;17.90;61.90;;;;;;5095812;28;20276;-46
2023/03/23 06:52:55;;;;;;;6.77;2.77;;;17.90;62.00;;;;;;5112161;27;20238;-45
2023/03/23 06:55:22;;;;;;;5.80;2.20;;;17.90;62.00;;;;;;5114779;27;20188;-45
2023/03/23 06:57:50;;;;;;;7.73;2.00;;;17.90;62.00;;;;;;5118127;27;20211;-45
2023/03/23 07:00:19;;;;;;;6.93;2.53;;;17.90;61.90;;;;;;5107895;28;20191;-46
2023/03/23 07:02:46;;;;;;;6.80;2.60;;;17.90;61.90;;;;;;5084381;27;20217;-45
2023/03/23 07:05:14;;;;;;;5.50;2.00;;;17.90;61.80;;;;;;5107902;28;20212;-46
2023/03/23 07:07:42;;;;;;;5.13;1.90;;;17.90;61.70;;;;;;5081892;28;20205;-45
2023/03/23 07:10:14;;;;;;;3.70;1.97;;;17.90;61.70;;;;;;5107521;28;20181;-46
2023/03/23 07:12:41;;;;;;;5.53;2.00;;;17.90;61.70;;;;;;5109389;28;20211;-46
2023/03/23 07:15:10;;;;;;;5.93;2.17;;;17.90;61.60;;;;;;5095215;28;20199;-46
2023/03/23 07:17:39;;;;;;;4.23;1.93;;;17.90;61.50;;;;;;5099436;27;20243;-46
2023/03/23 07:20:11;;;;;;;4.67;1.53;;;17.90;61.50;;;;;;5058545;28;20203;-46
2023/03/23 07:22:41;;;;;;;3.73;1.80;;;17.90;61.30;;;;;;5110031;28;20222;-45
2023/03/23 07:25:10;;;;;;;2.43;1.37;;;17.90;61.30;;;;;;5102440;27;20609;-45
2023/03/23 07:27:38;;;;;;;5.37;1.73;;;17.90;61.20;;;;;;5109679;28;20192;-46
2023/03/23 07:30:05;;;;;;;4.07;1.53;;;18.00;61.30;;;;;;5104740;28;20243;-45
2023/03/23 07:32:34;;;;;;;5.33;1.83;;;17.90;61.20;;;;;;5095669;28;20196;-45
2023/03/23 07:35:01;;;;;;;4.53;1.57;;;17.90;61.10;;;;;;5104868;28;20193;-45
2023/03/23 07:37:32;;;;;;;5.03;1.73;;;17.90;61.10;;;;;;5097802;28;20224;-45
2023/03/23 07:40:14;;;;;;;3.37;1.30;;;17.90;61.10;;;;;;5087284;28;20201;-45
2023/03/23 07:42:43;;;;;;;3.47;1.60;;;17.90;61.00;;;;;;5101266;28;20215;-45
2023/03/23 07:45:13;;;;;;;4.10;1.30;;;17.90;61.00;;;;;;5092189;28;20188;-46
2023/03/23 07:47:41;;;;;;;4.13;1.23;;;18.00;61.00;;;;;;5081966;28;20193;-46
2023/03/23 07:50:09;;;;;;;3.10;1.47;;;18.00;61.00;;;;;;5112228;27;20260;-46
2023/03/23 07:52:38;;;;;;;2.80;1.43;;;18.00;60.90;;;;;;5089018;28;20289;-46
2023/03/23 07:55:08;;;;;;;3.10;1.40;;;17.90;60.80;;;;;;5091100;28;20205;-46
2023/03/23 07:57:37;;;;;;;6.03;1.83;;;18.00;60.80;;;;;;5091385;28;20207;-45
2023/03/23 08:00:13;;;;;;;2.60;1.30;;;17.90;60.80;;;;;;5084684;27;20268;-46
2023/03/23 08:02:59;;;;;;;1.97;1.07;;;17.90;60.80;;;;;;5108451;28;20211;-46
2023/03/23 08:05:27;;;;;;;2.33;1.20;;;17.90;60.80;;;;;;5103453;27;20536;-45
2023/03/23 08:07:54;;;;;;;1.77;1.10;;;17.90;60.70;;;;;;5087478;28;20203;-45
2023/03/23 08:10:26;;;;;;;3.23;1.37;;;17.90;60.80;;;;;;5066801;28;20220;-45
2023/03/23 08:12:56;;;;;;;2.20;1.20;;;17.90;60.70;;;;;;5089225;28;20192;-45
2023/03/23 08:15:24;;;;;;;4.60;1.50;;;17.90;60.70;;;;;;5095411;28;20192;-45
2023/03/23 08:17:52;;;;;;;1.87;1.00;;;17.90;60.70;;;;;;5103371;28;20242;-45
2023/03/23 08:20:25;;;;;;;3.47;1.10;;;17.90;60.70;;;;;;5098960;28;20188;-46
2023/03/23 08:22:55;;;;;;;2.90;0.90;;;17.90;60.70;;;;;;5091648;28;20212;-46
2023/03/23 08:25:25;;;;;;;1.77;1.07;;;17.90;60.70;;;;;;5090441;28;20257;-46
2023/03/23 08:27:54;;;;;;;3.33;1.30;;;17.90;60.70;;;;;;5086276;28;20245;-46
2023/03/23 08:30:25;;;;;;;3.80;1.13;;;17.90;60.70;;;;;;5111949;28;20227;-45
2023/03/23 08:32:54;;;;;;;2.77;0.97;;;17.90;60.70;;;;;;5091149;28;20256;-45
2023/03/23 08:35:21;;;;;;;2.77;1.00;;;18.00;60.80;;;;;;5104509;28;20680;-45
2023/03/23 08:37:52;;;;;;;2.33;1.10;;;17.90;60.70;;;;;;5105374;28;20609;-45
2023/03/23 08:40:22;;;;;;;2.83;1.00;;;17.90;60.70;;;;;;5066060;28;20212;-46
2023/03/23 08:42:50;;;;;;;2.20;0.93;;;17.90;60.70;;;;;;5089284;28;20308;-46
2023/03/23 08:45:28;;;;;;;2.47;1.20;;;17.90;60.70;;;;;;5084550;28;20189;-46
2023/03/23 08:47:55;;;;;;;1.50;0.90;;;17.90;60.70;;;;;;5104315;28;20188;-46
2023/03/23 08:50:25;;;;;;;2.30;1.00;;;18.00;60.70;;;;;;5078367;28;20193;-46
2023/03/23 08:52:52;;;;;;;2.77;0.80;;;17.90;60.70;;;;;;5083242;28;20234;-46
2023/03/23 08:55:21;;;;;;;1.60;0.83;;;17.90;60.60;;;;;;5090771;28;20196;-45
2023/03/23 08:57:52;;;;;;;2.17;0.90;;;17.90;60.60;;;;;;5087578;28;20313;-46
2023/03/23 09:00:23;;;;;;;2.57;1.10;;;18.00;60.60;;;;;;5110070;28;20180;-45
2023/03/23 09:03:05;;;;;;;1.43;0.90;;;17.90;60.50;;;;;;5089246;28;20302;-45
2023/03/23 09:05:35;;;;;;;2.27;1.10;;;18.00;60.60;;;;;;5105595;28;20208;-45
2023/03/23 09:08:04;;;;;;;1.87;1.00;;;17.90;60.50;;;;;;5097409;28;20216;-45
2023/03/23 09:10:32;;;;;;;3.17;0.90;;;17.90;60.50;;;;;;5107879;28;20322;-46
2023/03/23 09:12:59;;;;;;;1.30;0.80;;;17.90;60.50;;;;;;5108127;28;20192;-46
2023/03/23 09:15:31;;;;;;;1.93;1.13;;;18.00;60.50;;;;;;5090285;28;20252;-45
2023/03/23 09:18:01;;;;;;;2.53;1.10;;;18.00;60.50;;;;;;5102781;28;20196;-46
2023/03/23 09:20:29;;;;;;;2.77;0.90;;;18.00;60.50;;;;;;5107162;28;20189;-45
2023/03/23 09:22:58;;;;;;;1.90;0.90;;;17.90;60.50;;;;;;5078608;28;20303;-46
2023/03/23 09:25:47;;;;;;;2.03;0.93;;;17.90;60.50;;;;;;5098358;28;20219;-45
2023/03/23 09:28:15;;;;;;;3.07;0.90;;;17.90;60.50;;;;;;5106400;28;20240;-46
2023/03/23 09:30:43;;;;;;;2.90;0.77;;;17.90;60.40;;;;;;5117126;27;20236;-45
2023/03/23 09:33:11;;;;;;;2.03;0.80;;;17.90;60.40;;;;;;5081538;28;20199;-46
2023/03/23 09:35:41;;;;;;;1.10;0.70;;;18.00;60.40;;;;;;5069529;28;20552;-46
2023/03/23 09:38:12;;;;;;;2.07;0.70;;;17.90;60.40;;;;;;5057088;28;20276;-46
2023/03/23 09:41:04;;;;;;;1.90;0.90;;;18.00;60.40;;;;;;5055149;28;20229;-45
2023/03/23 09:44:06;;;;;;;1.87;0.87;;;18.00;60.40;;;;;;5050637;28;20185;-45
2023/03/23 09:46:58;;;;;;;0.90;0.80;;;18.00;60.40;;;;;;5078440;28;20200;-45
2023/03/23 09:49:39;;;;;;;1.23;0.87;;;18.00;60.40;;;;;;5091067;28;20531;-45
2023/03/23 09:52:17;;;;;;;1.20;0.57;;;17.90;60.20;;;;;;5061235;28;20217;-45
2023/03/23 09:54:55;;;;;;;2.13;1.13;;;18.00;60.30;;;;;;5073175;28;20191;-45
2023/03/23 09:57:46;;;;;;;1.27;0.80;;;17.90;60.20;;;;;;5088368;28;20622;-46
2023/03/23 10:00:34;;;;;;;1.63;0.60;;;18.00;60.20;;;;;;5072271;28;20307;-46
2023/03/23 10:03:18;;;;;;;2.60;1.10;;;17.90;60.20;;;;;;5071332;28;20228;-46
2023/03/23 10:05:50;;;;;;;1.50;0.73;;;17.90;60.10;;;;;;5084382;28;20208;-45
2023/03/23 10:08:30;;;;;;;1.90;0.73;;;18.00;60.20;;;;;;5084213;28;20177;-46
2023/03/23 10:11:10;;;;;;;2.23;0.70;;;17.90;60.10;;;;;;5069651;28;20177;-46
2023/03/23 10:14:18;;;;;;;2.63;0.90;;;18.00;60.20;;;;;;5102724;28;20273;-46
2023/03/23 10:17:17;;;;;;;3.93;0.93;;;18.00;60.10;;;;;;5069548;28;20223;-46
2023/03/23 10:19:58;;;;;;;3.67;0.93;;;17.90;60.10;;;;;;5087081;28;20193;-46
2023/03/23 10:22:39;;;;;;;3.73;0.80;;;17.90;60.10;;;;;;5070695;28;20213;-45
2023/03/23 10:25:23;;;;;;;1.17;0.73;;;17.90;60.20;;;;;;5074688;28;20528;-45
2023/03/23 10:28:13;;;;;;;1.63;0.90;;;17.90;60.10;;;;;;5064047;28;20199;-45
2023/03/23 10:31:03;;;;;;;1.80;0.90;;;17.90;60.10;;;;;;5090048;28;20232;-45
2023/03/23 10:33:38;;;;;;;1.73;0.80;;;18.00;60.10;;;;;;5110708;28;20290;-46
2023/03/23 10:36:28;;;;;;;2.20;0.90;;;18.00;60.20;;;;;;5077127;28;20192;-45
2023/03/23 10:39:21;;;;;;;1.90;0.80;;;18.00;60.10;;;;;;5100262;28;20681;-45
2023/03/23 10:41:49;;;;;;;2.93;0.97;;;18.00;60.20;;;;;;5108652;27;20314;-46
2023/03/23 10:44:21;;;;;;;1.97;0.97;;;18.00;60.20;;;;;;5091859;28;20184;-46
2023/03/23 10:46:59;;;;;;;1.90;0.90;;;18.00;60.20;;;;;;5093235;28;20632;-45
2023/03/23 10:49:52;;;;;;;2.93;0.93;;;18.00;60.10;;;;;;5092869;28;20184;-45
2023/03/23 10:52:41;;;;;;;1.60;0.70;;;18.00;60.10;;;;;;5104368;28;20631;-45
2023/03/23 10:55:22;;;;;;;2.73;1.10;;;18.00;60.10;;;;;;5103597;27;20252;-45
2023/03/23 10:58:25;;;;;;;2.43;1.10;;;18.00;60.10;;;;;;5084892;28;20275;-45
2023/03/23 11:00:54;;;;;;;1.53;0.77;;;18.00;60.10;;;;;;5008820;28;20627;-46
2023/03/23 11:03:35;;;;;;;1.63;0.80;;;18.00;60.10;;;;;;5033726;28;20223;-47
2023/03/23 11:06:12;;;;;;;1.87;1.10;;;18.00;60.10;;;;;;5104841;28;20615;-46
2023/03/23 11:09:03;;;;;;;1.00;0.90;;;18.00;60.10;;;;;;5089999;28;20557;-46
2023/03/23 11:11:42;;;;;;;1.77;0.90;;;18.00;60.10;;;;;;5111168;27;20220;-46
2023/03/23 11:14:30;;;;;;;1.43;0.80;;;18.00;60.10;;;;;;5084156;28;20193;-46
2023/03/23 11:17:02;;;;;;;1.93;1.00;;;18.00;60.10;;;;;;5080614;28;20563;-46
2023/03/23 11:19:39;;;;;;;1.50;0.80;;;18.00;60.10;;;;;;5109909;28;20188;-46
2023/03/23 11:22:26;;;;;;;2.03;0.83;;;18.00;60.10;;;;;;5087749;28;20207;-46
2023/03/23 11:25:10;;;;;;;1.33;0.80;;;18.10;60.10;;;;;;5092642;27;20610;-46
2023/03/23 11:27:40;;;;;;;2.17;1.03;;;18.00;60.10;;;;;;5098020;28;20641;-45
2023/03/23 11:30:35;;;;;;;1.60;0.73;;;18.00;60.10;;;;;;5058412;28;20283;-46
2023/03/23 11:33:03;;;;;;;2.03;1.00;;;18.10;60.10;;;;;;5085517;28;20200;-45
2023/03/23 11:35:32;;;;;;;2.17;0.90;;;18.00;60.20;;;;;;5097870;28;20191;-46
2023/03/23 11:38:02;;;;;;;1.43;0.87;;;18.10;60.10;;;;;;5090544;28;20188;-46
2023/03/23 11:40:46;;;;;;;1.13;0.70;;;18.10;60.10;;;;;;5093558;28;20200;-46
2023/03/23 11:43:24;;;;;;;1.83;0.83;;;18.10;60.10;;;;;;5093209;28;20691;-46
2023/03/23 11:46:13;;;;;;;1.73;0.90;;;18.10;60.10;;;;;;5106254;28;20228;-46
2023/03/23 11:48:58;;;;;;;2.17;1.00;;;18.10;60.10;;;;;;5118582;27;20320;-46
2023/03/23 11:51:48;;;;;;;1.27;0.70;;;18.10;60.10;;;;;;5108623;28;20200;-46
2023/03/23 11:54:50;;;;;;;1.60;0.80;;;18.10;60.10;;;;;;5112041;27;20624;-46
2023/03/23 11:57:19;;;;;;;1.50;0.83;;;18.10;60.00;;;;;;5090185;28;20276;-45
2023/03/23 11:59:45;;;;;;;1.67;0.80;;;18.10;60.10;;;;;;5108460;28;20233;-45
2023/03/23 12:02:52;;;;;;;1.33;0.90;;;18.10;60.70;;;;;;5108203;28;20261;-46
2023/03/23 12:05:50;;;;;;;2.93;1.00;;;18.10;60.60;;;;;;5052606;28;20205;-46
2023/03/23 12:08:43;;;;;;;1.50;0.80;;;18.10;60.00;;;;;;5079502;27;20585;-46
2023/03/23 12:11:41;;;;;;;0.90;0.70;;;18.10;60.00;;;;;;5109330;27;20204;-45
2023/03/23 12:14:25;;;;;;;1.60;1.00;;;18.10;60.00;;;;;;5094065;28;20654;-46
2023/03/23 12:17:31;;;;;;;2.80;0.70;;;18.10;60.00;;;;;;5105591;27;20199;-46
2023/03/23 12:20:32;;;;;;;1.43;0.83;;;18.10;59.90;;;;;;5061198;28;20273;-46
2023/03/23 12:23:09;;;;;;;1.67;1.07;;;18.10;59.90;;;;;;5108626;28;20216;-45
2023/03/23 12:26:00;;;;;;;1.17;0.90;;;18.20;60.00;;;;;;5108075;28;20228;-46
2023/03/23 12:28:42;;;;;;;1.83;0.97;;;18.20;60.00;;;;;;5116738;27;20690;-46
2023/03/23 12:31:27;;;;;;;1.20;0.70;;;18.10;60.00;;;;;;5089995;28;20247;-46
2023/03/23 12:34:26;;;;;;;1.73;0.90;;;18.20;60.10;;;;;;5106149;28;20189;-46
2023/03/23 12:37:19;;;;;;;2.03;0.97;;;18.20;60.00;;;;;;5096938;28;20188;-46
2023/03/23 12:40:14;;;;;;;1.27;0.80;;;18.20;60.00;;;;;;5105013;28;20189;-46
2023/03/23 12:42:55;;;;;;;1.93;0.90;;;18.20;60.00;;;;;;5052059;28;20264;-46
2023/03/23 12:45:44;;;;;;;1.67;0.80;;;18.20;60.00;;;;;;5109087;28;20188;-46
2023/03/23 12:48:19;;;;;;;2.40;0.90;;;18.20;60.00;;;;;;5101094;28;20215;-45
2023/03/23 12:51:15;;;;;;;1.93;1.10;;;18.20;60.00;;;;;;5104722;28;20208;-46
2023/03/23 12:54:02;;;;;;;1.37;0.90;;;18.20;60.00;;;;;;5092389;28;20268;-46
2023/03/23 12:57:03;;;;;;;2.10;0.93;;;18.20;60.00;;;;;;5099354;28;20236;-46
2023/03/23 12:59:47;;;;;;;1.83;1.27;;;18.20;60.10;;;;;;5083388;28;20192;-46
2023/03/23 13:02:25;;;;;;;2.33;0.90;;;18.20;60.00;;;;;;5110172;28;20208;-46
2023/03/23 13:05:25;;;;;;;2.27;1.03;;;18.20;60.00;;;;;;5110461;28;20231;-46
2023/03/23 13:08:00;;;;;;;1.93;0.97;;;18.20;59.90;;;;;;5078834;27;20206;-45
2023/03/23 13:10:42;;;;;;;2.40;1.27;;;18.20;60.00;;;;;;5094288;28;20196;-45
2023/03/23 13:13:24;;;;;;;1.97;0.83;;;18.30;60.00;;;;;;5093612;28;20197;-45
2023/03/23 13:16:14;;;;;;;2.17;1.00;;;18.30;59.90;;;;;;5080995;28;20821;-46
2023/03/23 13:19:16;;;;;;;3.33;1.00;;;18.30;59.90;;;;;;5095322;28;20204;-46
2023/03/23 13:22:15;;;;;;;1.97;0.90;;;18.40;59.90;;;;;;5109592;28;20243;-46
2023/03/23 13:24:57;;;;;;;1.53;0.90;;;18.30;59.90;;;;;;5076407;28;20269;-46